Terminal Aerodrome Forecast
Issued by NWS

Home | Current Version | Previous Version | Graphics & Text | Print | Product List | Glossary On
Versions: 1 2 3 4 5 6 7 8 9 10 11 12 13 14 15 16 17 18 19 20 21 22 23 24 25
000
FTUS43 KGRB 291900 AAA
TAFAUW
TAF AMD
KAUW 291921Z 2919/3018 19005KT 6SM HZ SCT008 BKN015
     FM292100 18008KT P6SM BKN020
     FM300100 17006KT 5SM BR VCSH SCT020 OVC040
      TEMPO 3004/3008 2SM +TSRA BR BKN020CB
     FM300800 20005KT 3SM BR OVC004 PROB30 3008/3014 1SM -SHRA BR
      OVC002
     FM301400 29006KT 5SM -SHRA BR OVC008=

USA.gov is the U.S. government's official web portal to all federal, state and local government web resources and services.